createdAt,value
2022-09-10T00:01:12.757Z,4.97
2022-09-10T00:04:16.155Z,4.97
2022-09-10T00:07:18.708Z,5.40
2022-09-10T00:10:20.895Z,5.50
2022-09-10T00:13:23.517Z,5.20
2022-09-10T00:16:27.734Z,5.47
2022-09-10T00:19:31.408Z,5.07
2022-09-10T00:22:34.440Z,5.90
2022-09-10T00:25:36.676Z,5.38
2022-09-10T00:28:38.796Z,5.40
2022-09-10T00:31:40.773Z,5.85
2022-09-10T00:34:42.737Z,5.10
2022-09-10T00:37:44.540Z,5.80
2022-09-10T00:40:49.017Z,5.30
2022-09-10T00:43:58.283Z,5.72
2022-09-10T00:47:00.424Z,5.40
2022-09-10T00:50:23.733Z,5.80
2022-09-10T00:53:30.712Z,5.57
2022-09-10T00:56:34.308Z,6.10
2022-09-10T00:59:36.494Z,5.80
2022-09-10T01:02:38.605Z,5.57
2022-09-10T01:05:44.189Z,6.32
2022-09-10T01:08:46.053Z,5.50
2022-09-10T01:12:04.403Z,6.50
2022-09-10T01:15:29.270Z,5.63
2022-09-10T01:18:53.598Z,5.95
2022-09-10T01:22:57.579Z,5.72
2022-09-10T01:26:27.826Z,6.30
2022-09-10T01:29:39.648Z,5.53
2022-09-10T01:32:50.693Z,5.22
2022-09-10T01:36:00.027Z,5.72
2022-09-10T01:39:03.016Z,5.63
2022-09-10T01:42:05.347Z,5.35
2022-09-10T01:45:08.101Z,5.18
2022-09-10T01:48:55.260Z,5.35
2022-09-10T01:52:32.010Z,5.20
2022-09-10T01:55:38.073Z,5.07
2022-09-10T01:58:43.227Z,5.93
2022-09-10T02:01:52.732Z,5.00
2022-09-10T02:04:56.521Z,5.13
2022-09-10T02:08:03.742Z,6.30
2022-09-10T02:11:09.632Z,5.63
2022-09-10T02:14:14.155Z,5.78
2022-09-10T02:17:17.035Z,5.70
2022-09-10T02:20:19.806Z,6.10
2022-09-10T02:23:28.876Z,6.28
2022-09-10T02:26:30.916Z,6.20
2022-09-10T02:29:33.297Z,5.78
2022-09-10T02:32:35.121Z,6.38
2022-09-10T02:35:36.992Z,6.05
2022-09-10T02:38:38.851Z,5.43
2022-09-10T02:41:41.613Z,6.35
2022-09-10T02:44:44.448Z,5.93
2022-09-10T02:47:46.300Z,6.03
2022-09-10T02:50:48.422Z,6.18
2022-09-10T02:53:50.448Z,6.22
2022-09-10T02:56:52.257Z,6.60
2022-09-10T02:59:54.235Z,6.97
2022-09-10T03:03:00.950Z,6.75
2022-09-10T03:06:05.203Z,7.75
2022-09-10T03:09:07.185Z,7.38
2022-09-10T03:12:09.101Z,6.63
2022-09-10T03:15:11.117Z,6.95
2022-09-10T03:18:13.106Z,5.97
2022-09-10T03:21:25.239Z,6.40
2022-09-10T03:24:28.476Z,6.03
2022-09-10T03:27:30.528Z,6.68
2022-09-10T03:30:32.840Z,6.43
2022-09-10T03:33:35.286Z,6.05
2022-09-10T03:36:37.161Z,6.10
2022-09-10T03:39:39.036Z,6.60
2022-09-10T03:42:41.361Z,6.22
2022-09-10T03:45:43.341Z,6.78
2022-09-10T03:48:45.269Z,5.68
2022-09-10T03:51:48.237Z,6.53
2022-09-10T03:54:51.195Z,6.60
2022-09-10T03:57:53.054Z,5.32
2022-09-10T04:00:54.986Z,5.47
2022-09-10T04:03:57.542Z,6.70
2022-09-10T04:06:59.544Z,6.37
2022-09-10T04:10:01.376Z,6.10
2022-09-10T04:13:03.278Z,5.60
2022-09-10T04:16:05.260Z,6.18
2022-09-10T04:19:07.172Z,6.22
2022-09-10T04:22:09.010Z,5.75
2022-09-10T04:25:11.104Z,5.80
2022-09-10T04:28:13.418Z,5.30
2022-09-10T04:31:15.406Z,5.88
2022-09-10T04:34:17.253Z,6.35
2022-09-10T04:37:19.532Z,6.50
2022-09-10T04:40:23.465Z,6.80
2022-09-10T04:43:26.070Z,6.60
2022-09-10T04:46:27.957Z,5.47
2022-09-10T04:49:29.823Z,5.93
2022-09-10T04:52:31.626Z,6.30
2022-09-10T04:55:33.878Z,5.95
2022-09-10T04:58:38.822Z,5.57
2022-09-10T05:01:41.404Z,5.75
2022-09-10T05:04:43.382Z,5.15
2022-09-10T05:07:45.266Z,5.88
2022-09-10T05:10:47.125Z,5.70
2022-09-10T05:13:49.512Z,5.25
2022-09-10T05:16:51.773Z,5.28
2022-09-10T05:19:53.614Z,5.35
2022-09-10T05:22:56.215Z,5.97
2022-09-10T05:25:58.548Z,5.88
2022-09-10T05:29:00.375Z,5.43
2022-09-10T05:32:02.444Z,5.45
2022-09-10T05:35:05.628Z,5.30
2022-09-10T05:38:08.364Z,5.93
2022-09-10T05:41:10.900Z,5.90
2022-09-10T05:44:13.394Z,5.80
2022-09-10T05:47:17.573Z,5.57
2022-09-10T05:50:20.128Z,5.38
2022-09-10T05:53:21.993Z,4.87
2022-09-10T05:56:25.796Z,5.15
2022-09-10T05:59:27.634Z,5.30
2022-09-10T06:02:29.611Z,5.32
2022-09-10T06:05:31.943Z,5.53
2022-09-10T06:08:34.183Z,5.28
2022-09-10T06:11:36.033Z,5.47
2022-09-10T06:14:37.989Z,5.03
2022-09-10T06:17:40.258Z,5.65
2022-09-10T06:20:42.127Z,4.78
2022-09-10T06:23:45.086Z,5.70
2022-09-10T06:26:50.182Z,5.35
2022-09-10T06:29:52.092Z,5.47
2022-09-10T06:32:54.106Z,4.97
2022-09-10T06:35:57.669Z,5.32
2022-09-10T06:38:59.953Z,5.72
2022-09-10T06:42:01.977Z,5.55
2022-09-10T06:45:04.134Z,5.80
2022-09-10T06:48:37.820Z,5.65
2022-09-10T06:51:28.065Z,5.60
2022-09-10T06:54:29.912Z,5.85
2022-09-10T06:57:31.880Z,5.57
2022-09-10T07:00:33.716Z,5.97
2022-09-10T07:03:36.090Z,5.43
2022-09-10T07:06:38.359Z,5.45
2022-09-10T07:09:40.318Z,5.25
2022-09-10T07:12:42.195Z,5.20
2022-09-10T07:15:45.764Z,5.20
2022-09-10T07:18:52.190Z,5.25
2022-09-10T07:21:54.325Z,5.25
2022-09-10T07:24:56.219Z,5.53
2022-09-10T07:27:58.094Z,5.45
2022-09-10T07:30:59.970Z,5.40
2022-09-10T07:34:03.048Z,5.47
2022-09-10T07:37:05.493Z,6.22
2022-09-10T07:40:08.366Z,5.43
2022-09-10T07:43:10.422Z,5.20
2022-09-10T07:46:19.397Z,5.75
2022-09-10T07:49:21.270Z,5.50
2022-09-10T07:52:23.126Z,5.20
2022-09-10T07:55:24.990Z,5.53
2022-09-10T07:58:28.201Z,5.07
2022-09-10T08:01:30.977Z,6.40
2022-09-10T08:04:37.079Z,6.75
2022-09-10T08:07:39.818Z,6.60
2022-09-10T08:10:42.298Z,8.43
2022-09-10T08:13:48.962Z,5.50
2022-09-10T08:16:51.019Z,5.10
2022-09-10T08:19:53.941Z,5.75
2022-09-10T08:22:57.569Z,5.35
2022-09-10T08:25:59.473Z,5.40
2022-09-10T08:29:02.853Z,5.18
2022-09-10T08:32:05.176Z,6.10
2022-09-10T08:35:07.375Z,5.60
2022-09-10T08:38:10.263Z,5.93
2022-09-10T08:41:32.340Z,5.43
2022-09-10T08:44:49.982Z,5.68
2022-09-10T08:48:03.153Z,5.57
2022-09-10T08:51:16.006Z,5.68
2022-09-10T08:54:26.114Z,5.25
2022-09-10T08:57:40.432Z,5.28
2022-09-10T09:00:44.755Z,5.97
2022-09-10T09:03:48.006Z,5.90
2022-09-10T09:09:59.507Z,5.65
2022-09-10T09:13:26.604Z,5.75
2022-09-10T09:16:34.985Z,6.00
2022-09-10T09:19:43.346Z,6.22
2022-09-10T09:22:52.568Z,5.57
2022-09-10T09:25:59.305Z,6.05
2022-09-10T09:29:15.077Z,6.88
2022-09-10T09:32:20.534Z,6.20
2022-09-10T09:35:25.852Z,6.65
2022-09-10T09:38:41.519Z,6.25
2022-09-10T09:41:57.889Z,6.90
2022-09-10T09:45:14.794Z,6.55
2022-09-10T09:48:19.211Z,6.65
2022-09-10T09:51:22.049Z,6.78
2022-09-10T09:58:21.045Z,7.05
2022-09-10T10:01:27.001Z,6.07
2022-09-10T10:04:33.920Z,6.05
2022-09-10T10:07:36.572Z,6.75
2022-09-10T10:10:38.533Z,6.97
2022-09-10T10:13:43.007Z,6.43
2022-09-10T10:16:45.916Z,6.00
2022-09-10T10:20:08.855Z,6.50
2022-09-10T10:23:33.751Z,6.40
2022-09-10T10:26:36.841Z,6.07
2022-09-10T10:29:39.380Z,6.22
2022-09-10T10:32:53.166Z,6.50
2022-09-10T10:36:26.481Z,6.13
2022-09-10T10:40:10.420Z,6.57
2022-09-10T10:43:37.318Z,7.25
2022-09-10T10:46:48.818Z,7.18
2022-09-10T10:50:09.138Z,7.10
2022-09-10T10:53:14.656Z,6.53
2022-09-10T10:56:40.837Z,6.80
2022-09-10T11:00:10.539Z,7.93
2022-09-10T11:03:22.644Z,6.72
2022-09-10T11:06:39.411Z,6.70
2022-09-10T11:09:47.368Z,6.90
2022-09-10T11:13:11.843Z,7.13
2022-09-10T11:16:22.510Z,7.57
2022-09-10T11:19:37.250Z,7.38
2022-09-10T11:22:45.446Z,7.53
2022-09-10T11:25:50.332Z,6.88
2022-09-10T11:29:23.211Z,7.22
2022-09-10T11:32:44.009Z,8.13
2022-09-10T11:36:27.435Z,7.00
2022-09-10T11:39:32.035Z,7.03
2022-09-10T11:42:44.402Z,8.30
2022-09-10T11:45:55.027Z,8.30
2022-09-10T11:49:36.493Z,7.53
2022-09-10T11:52:40.233Z,6.50
2022-09-10T11:55:57.833Z,6.15
2022-09-10T11:59:20.872Z,6.82
2022-09-10T12:02:50.808Z,7.25
2022-09-10T12:06:05.486Z,7.93
2022-09-10T12:09:45.679Z,7.57
2022-09-10T12:12:50.196Z,7.18
2022-09-10T12:15:57.362Z,7.22
2022-09-10T12:19:02.858Z,7.22
2022-09-10T12:22:27.304Z,6.72
2022-09-10T12:25:34.305Z,6.90
2022-09-10T12:28:42.332Z,7.68
2022-09-10T12:32:22.054Z,7.75
2022-09-10T12:35:35.800Z,7.80
2022-09-10T12:39:01.536Z,7.90
2022-09-10T12:42:24.968Z,7.65
2022-09-10T12:46:01.092Z,8.65
2022-09-10T12:49:10.001Z,7.13
2022-09-10T12:52:13.886Z,7.70
2022-09-10T12:55:21.860Z,7.82
2022-09-10T12:58:46.341Z,7.53
2022-09-10T13:01:51.508Z,8.05
2022-09-10T13:04:59.512Z,8.10
2022-09-10T13:08:07.014Z,7.00
2022-09-10T13:11:21.132Z,7.57
2022-09-10T13:14:30.532Z,8.32
2022-09-10T13:17:47.561Z,6.95
2022-09-10T13:20:49.502Z,8.10
2022-09-10T13:23:52.040Z,9.07
2022-09-10T13:27:12.709Z,7.03
2022-09-10T13:30:19.501Z,7.82
2022-09-10T13:33:25.685Z,8.15
2022-09-10T13:36:48.201Z,9.25
2022-09-10T13:40:09.165Z,10.95
2022-09-10T13:44:01.033Z,10.05
2022-09-10T13:47:16.676Z,10.98
2022-09-10T13:50:23.852Z,11.38
2022-09-10T13:53:29.144Z,11.00
2022-09-10T13:56:33.375Z,11.23
2022-09-10T13:59:36.902Z,11.48
2022-09-10T14:02:50.947Z,9.70
2022-09-10T14:06:11.996Z,11.23
2022-09-10T14:09:13.998Z,10.25
2022-09-10T14:12:20.916Z,9.65
2022-09-10T14:15:29.250Z,10.13
2022-09-10T14:18:45.191Z,11.32
2022-09-10T14:21:51.774Z,11.30
2022-09-10T14:25:05.380Z,11.27
2022-09-10T14:28:16.315Z,10.43
2022-09-10T14:31:22.933Z,11.27
2022-09-10T14:34:32.337Z,11.30
2022-09-10T14:37:39.673Z,10.85
2022-09-10T14:40:41.526Z,11.23
2022-09-10T14:43:43.588Z,9.75
2022-09-10T14:46:46.690Z,9.85
2022-09-10T14:49:48.560Z,10.32
2022-09-10T14:52:50.368Z,10.25
2022-09-10T14:55:52.292Z,9.75
2022-09-10T14:58:57.178Z,9.50
2022-09-10T15:02:05.827Z,9.23
2022-09-10T15:05:17.752Z,8.65
2022-09-10T15:08:19.695Z,8.68
2022-09-10T15:11:26.174Z,8.73
2022-09-10T15:14:28.362Z,9.93
2022-09-10T15:17:30.210Z,10.75
2022-09-10T15:32:01.080Z,8.80
2022-09-10T15:35:04.398Z,8.70
2022-09-10T15:41:13.501Z,8.27
2022-09-10T15:44:15.513Z,8.95
2022-09-10T15:47:17.347Z,9.43
2022-09-10T15:50:19.329Z,8.38
2022-09-10T15:53:21.294Z,8.82
2022-09-10T15:56:26.669Z,8.25
2022-09-10T15:59:29.847Z,7.15
2022-09-10T16:02:31.842Z,7.45
2022-09-10T16:05:35.417Z,8.75
2022-09-10T16:08:37.640Z,8.27
2022-09-10T16:11:41.919Z,7.90
2022-09-10T16:14:45.594Z,7.78
2022-09-10T16:17:47.546Z,7.57
2022-09-10T16:20:49.469Z,7.82
2022-09-10T16:23:53.351Z,7.00
2022-09-10T16:26:55.363Z,6.43
2022-09-10T16:29:57.297Z,6.90
2022-09-10T16:32:59.306Z,6.60
2022-09-10T16:36:05.001Z,6.57
2022-09-10T16:39:12.363Z,6.40
2022-09-10T16:42:14.477Z,7.18
2022-09-10T16:45:17.816Z,6.68
2022-09-10T16:51:24.405Z,7.18
2022-09-10T16:54:26.714Z,6.80
2022-09-10T16:57:28.570Z,6.88
2022-09-10T17:00:30.418Z,6.28
2022-09-10T17:03:32.334Z,6.80
2022-09-10T17:06:35.173Z,6.32
2022-09-10T17:09:37.070Z,6.90
2022-09-10T17:12:38.888Z,6.53
2022-09-10T17:15:42.288Z,6.63
2022-09-10T17:18:44.797Z,6.82
2022-09-10T17:21:51.435Z,6.67
2022-09-10T17:24:53.996Z,6.70
2022-09-10T17:27:56.063Z,6.97
2022-09-10T17:30:58.175Z,6.88
2022-09-10T17:34:00.974Z,7.03
2022-09-10T17:37:02.943Z,6.80
2022-09-10T17:40:05.747Z,6.40
2022-09-10T17:43:08.416Z,7.13
2022-09-10T17:46:15.083Z,7.32
2022-09-10T17:49:17.076Z,7.25
2022-09-10T17:52:18.950Z,6.07
2022-09-10T17:55:20.790Z,7.22
2022-09-10T17:58:22.751Z,6.70
2022-09-10T18:01:30.296Z,6.53
2022-09-10T18:04:32.506Z,6.90
2022-09-10T18:07:34.404Z,7.43
2022-09-10T18:10:36.866Z,7.00
2022-09-10T18:13:39.103Z,6.43
2022-09-10T18:16:41.115Z,6.82
2022-09-10T18:19:43.073Z,7.22
2022-09-10T18:22:44.955Z,7.38
2022-09-10T18:25:49.962Z,6.43
2022-09-10T18:29:00.215Z,5.82
2022-09-10T18:32:02.281Z,6.28
2022-09-10T18:35:04.519Z,6.28
2022-09-10T18:38:06.376Z,6.20
2022-09-10T18:41:21.369Z,6.93
2022-09-10T18:44:26.189Z,6.05
2022-09-10T18:47:44.010Z,6.70
2022-09-10T18:50:47.387Z,6.20
2022-09-10T18:53:53.179Z,7.22
2022-09-10T18:56:55.078Z,6.53
2022-09-10T18:59:57.222Z,6.70
2022-09-10T19:02:59.080Z,6.95
2022-09-10T19:06:06.076Z,6.22
2022-09-10T19:09:11.010Z,6.07
2022-09-10T19:12:17.401Z,6.22
2022-09-10T19:15:21.029Z,6.15
2022-09-10T19:18:23.052Z,6.22
2022-09-10T19:21:26.481Z,6.55
2022-09-10T19:24:51.071Z,8.25
2022-09-10T19:27:52.843Z,6.18
2022-09-10T19:30:55.056Z,6.07
2022-09-10T19:33:59.831Z,6.55
2022-09-10T19:37:01.907Z,6.35
2022-09-10T19:40:04.129Z,6.55
2022-09-10T19:43:06.163Z,6.30
2022-09-10T19:46:12.796Z,6.90
2022-09-10T19:49:14.935Z,7.00
2022-09-10T19:52:17.186Z,6.95
2022-09-10T19:55:20.432Z,6.47
2022-09-10T20:01:33.090Z,6.35
2022-09-10T20:04:35.732Z,6.72
2022-09-10T20:07:37.640Z,7.05
2022-09-10T20:10:39.517Z,7.28
2022-09-10T20:13:41.810Z,6.97
2022-09-10T20:16:45.378Z,7.03
2022-09-10T20:19:47.748Z,6.60
2022-09-10T20:22:51.600Z,6.53
2022-09-10T20:25:53.485Z,8.05
2022-09-10T20:29:05.216Z,7.45
2022-09-10T20:32:07.121Z,7.55
2022-09-10T20:35:10.318Z,7.45
2022-09-10T20:38:12.885Z,7.32
2022-09-10T20:41:15.901Z,7.25
2022-09-10T20:44:18.448Z,8.25
2022-09-10T20:47:20.275Z,7.85
2022-09-10T20:50:22.602Z,8.45
2022-09-10T20:53:25.489Z,7.82
2022-09-10T20:56:27.584Z,8.55
2022-09-10T20:59:30.526Z,8.98
2022-09-10T21:02:32.699Z,8.15
2022-09-10T21:05:34.678Z,8.90
2022-09-10T21:08:38.284Z,8.88
2022-09-10T21:11:40.517Z,9.38
2022-09-10T21:14:42.385Z,9.57
2022-09-10T21:17:45.017Z,9.48
2022-09-10T21:20:47.270Z,9.82
2022-09-10T21:23:54.016Z,10.43
2022-09-10T21:26:56.393Z,9.70
2022-09-10T21:29:58.913Z,10.27
2022-09-10T21:33:00.775Z,10.87
2022-09-10T21:36:07.938Z,11.27
2022-09-10T21:39:17.717Z,10.88
2022-09-10T21:42:19.952Z,11.88
2022-09-10T21:45:26.059Z,12.27
2022-09-10T21:48:29.242Z,12.25
2022-09-10T21:51:31.250Z,12.18
2022-09-10T21:54:33.065Z,11.93
2022-09-10T21:57:34.966Z,13.68
2022-09-10T22:00:36.801Z,12.82
2022-09-10T22:03:39.349Z,12.68
2022-09-10T22:06:41.574Z,13.27
2022-09-10T22:09:43.557Z,13.75
2022-09-10T22:12:46.360Z,13.98
2022-09-10T22:15:51.571Z,13.02
2022-09-10T22:18:56.232Z,14.70
2022-09-10T22:21:58.588Z,14.77
2022-09-10T22:25:01.390Z,13.70
2022-09-10T22:28:03.809Z,14.60
2022-09-10T22:31:11.441Z,13.88
2022-09-10T22:34:15.613Z,14.00
2022-09-10T22:37:17.951Z,13.48
2022-09-10T22:40:20.224Z,13.70
2022-09-10T22:43:22.077Z,13.35
2022-09-10T22:46:24.203Z,14.68
2022-09-10T22:49:26.234Z,14.43
2022-09-10T22:52:32.814Z,14.27
2022-09-10T22:55:34.898Z,14.93
2022-09-10T22:58:37.292Z,14.52
2022-09-10T23:01:39.395Z,15.33
2022-09-10T23:04:42.708Z,14.30
2022-09-10T23:10:46.553Z,14.43
2022-09-10T23:14:01.454Z,13.48
2022-09-10T23:17:04.093Z,14.43
2022-09-10T23:20:07.189Z,14.43
2022-09-10T23:23:09.039Z,14.80
2022-09-10T23:26:11.404Z,15.05
2022-09-10T23:29:16.952Z,15.05
2022-09-10T23:32:18.808Z,16.50
2022-09-10T23:35:20.686Z,15.02
2022-09-10T23:38:22.988Z,13.38
2022-09-10T23:41:25.092Z,13.95
2022-09-10T23:44:27.160Z,13.85
2022-09-10T23:47:29.057Z,12.27
2022-09-10T23:50:30.978Z,12.73
2022-09-10T23:53:33.115Z,12.45
2022-09-10T23:56:35.300Z,10.90
2022-09-10T23:59:37.234Z,9.93
